Terminal Aerodrome Forecast
Issued by NWS Wilmington, OH

Current Version | Previous Version | Graphics & Text | Print | Product List | Glossary On
Versions: 1 2 3 4 5 6 7 8 9 10 11 12 13 14 15 16 17
000
FTUS41 KILN 290856 AAA
TAFCMH
TAF AMD
KCMH 290856Z 2909/3006 00000KT P6SM BKN250
     FM291300 20006KT P6SM VCSH SCT080 BKN250
     FM291500 20009KT P6SM SCT080 BKN250
     FM300100 20004KT P6SM VCTS BKN040CB
     FM300400 21002KT P6SM BKN040=

USA.gov is the U.S. government's official web portal to all federal, state and local government web resources and services.